createdAt,value
2023-03-25T00:01:26.111Z,38.90
2023-03-25T00:03:55.210Z,38.88
2023-03-25T00:06:23.642Z,38.49
2023-03-25T00:08:52.134Z,38.52
2023-03-25T00:11:20.614Z,38.50
2023-03-25T00:13:50.861Z,38.37
2023-03-25T00:16:20.189Z,38.44
2023-03-25T00:18:50.023Z,38.43
2023-03-25T00:21:18.993Z,38.47
2023-03-25T00:23:47.617Z,38.53
2023-03-25T00:26:16.450Z,38.42
2023-03-25T00:28:44.862Z,38.35
2023-03-25T00:31:16.278Z,38.27
2023-03-25T00:33:44.789Z,38.19
2023-03-25T00:36:15.088Z,38.32
2023-03-25T00:38:45.618Z,38.16
2023-03-25T00:41:23.374Z,38.07
2023-03-25T00:43:55.511Z,38.19
2023-03-25T00:46:27.924Z,37.96
2023-03-25T00:48:56.725Z,37.80
2023-03-25T00:51:25.974Z,37.87
2023-03-25T00:53:56.928Z,37.79
2023-03-25T00:56:26.011Z,37.60
2023-03-25T00:58:54.541Z,37.63
2023-03-25T01:01:28.690Z,37.53
2023-03-25T01:03:59.316Z,37.16
2023-03-25T01:06:30.496Z,37.14
2023-03-25T01:09:00.476Z,37.11
2023-03-25T01:11:31.210Z,36.80
2023-03-25T01:14:00.768Z,36.77
2023-03-25T01:16:31.063Z,36.68
2023-03-25T01:18:59.543Z,36.82
2023-03-25T01:21:28.150Z,36.94
2023-03-25T01:23:56.596Z,37.11
2023-03-25T01:26:24.966Z,36.97
2023-03-25T01:28:54.025Z,37.06
2023-03-25T01:31:23.510Z,37.06
2023-03-25T01:33:53.327Z,37.10
2023-03-25T01:36:24.670Z,37.25
2023-03-25T01:38:53.204Z,37.28
2023-03-25T01:41:21.742Z,37.34
2023-03-25T01:44:08.361Z,37.51
2023-03-25T01:46:38.912Z,37.49
2023-03-25T01:49:13.975Z,37.55
2023-03-25T01:51:46.818Z,37.63
2023-03-25T01:54:18.017Z,37.57
2023-03-25T01:56:50.783Z,37.55
2023-03-25T01:59:21.152Z,37.75
2023-03-25T02:01:51.515Z,37.71
2023-03-25T02:04:34.929Z,37.82
2023-03-25T02:07:04.199Z,37.86
2023-03-25T02:09:32.665Z,37.83
2023-03-25T02:12:01.223Z,37.78
2023-03-25T02:14:35.543Z,37.80
2023-03-25T02:17:16.055Z,37.83
2023-03-25T02:20:33.547Z,37.72
2023-03-25T02:23:42.296Z,38.17
2023-03-25T02:26:50.095Z,37.98
2023-03-25T02:29:38.429Z,38.20
2023-03-25T02:32:26.550Z,38.17
2023-03-25T02:35:25.184Z,38.37
2023-03-25T02:38:28.081Z,38.29
2023-03-25T02:40:59.694Z,38.44
2023-03-25T02:43:33.975Z,38.46
2023-03-25T02:46:08.987Z,38.51
2023-03-25T02:48:42.214Z,38.50
2023-03-25T02:51:16.658Z,38.66
2023-03-25T02:53:51.197Z,38.64
2023-03-25T02:56:25.630Z,38.63
2023-03-25T02:58:56.694Z,38.70
2023-03-25T03:01:26.968Z,38.58
2023-03-25T03:03:55.828Z,38.68
2023-03-25T03:06:26.145Z,38.77
2023-03-25T03:09:19.007Z,38.92
2023-03-25T03:11:58.649Z,38.86
2023-03-25T03:14:44.691Z,38.86
2023-03-25T03:17:22.168Z,38.89
2023-03-25T03:19:56.484Z,38.95
2023-03-25T03:22:42.572Z,39.11
2023-03-25T03:25:23.929Z,39.10
2023-03-25T03:27:58.399Z,39.27
2023-03-25T03:30:33.670Z,39.21
2023-03-25T03:33:10.078Z,39.17
2023-03-25T03:35:44.290Z,39.18
2023-03-25T03:38:16.417Z,39.28
2023-03-25T03:40:52.412Z,39.40
2023-03-25T03:43:28.439Z,39.27
2023-03-25T03:46:02.755Z,39.23
2023-03-25T03:48:40.394Z,39.48
2023-03-25T03:51:16.534Z,39.26
2023-03-25T03:53:52.079Z,39.31
2023-03-25T03:56:27.255Z,39.23
2023-03-25T03:58:59.568Z,39.33
2023-03-25T04:01:38.117Z,39.35
2023-03-25T04:04:11.765Z,39.41
2023-03-25T04:06:44.115Z,39.34
2023-03-25T04:09:27.112Z,39.51
2023-03-25T04:12:02.074Z,39.59
2023-03-25T04:14:30.802Z,39.67
2023-03-25T04:16:59.814Z,39.72
2023-03-25T04:19:28.430Z,39.59
2023-03-25T04:21:56.826Z,39.73
2023-03-25T04:24:26.713Z,39.64
2023-03-25T04:26:57.693Z,39.97
2023-03-25T04:29:26.329Z,39.72
2023-03-25T04:31:56.357Z,39.90
2023-03-25T04:34:27.230Z,39.98
2023-03-25T04:36:58.376Z,39.99
2023-03-25T04:39:29.805Z,39.96
2023-03-25T04:42:01.924Z,39.97
2023-03-25T04:44:33.761Z,40.02
2023-03-25T04:47:04.057Z,40.14
2023-03-25T04:49:32.638Z,40.25
2023-03-25T04:52:04.310Z,40.10
2023-03-25T04:54:32.811Z,40.05
2023-03-25T04:57:02.646Z,40.14
2023-03-25T04:59:31.070Z,40.25
2023-03-25T05:01:59.485Z,40.15
2023-03-25T05:04:27.965Z,40.24
2023-03-25T05:06:57.033Z,40.19
2023-03-25T05:09:25.565Z,40.05
2023-03-25T05:11:56.049Z,40.08
2023-03-25T05:14:26.041Z,40.22
2023-03-25T05:16:55.845Z,40.05
2023-03-25T05:19:24.550Z,40.08
2023-03-25T05:21:52.988Z,40.11
2023-03-25T05:24:21.467Z,40.11
2023-03-25T05:26:49.882Z,40.09
2023-03-25T05:29:19.274Z,39.95
2023-03-25T05:31:49.559Z,39.91
2023-03-25T05:34:18.049Z,39.91
2023-03-25T05:36:47.768Z,39.93
2023-03-25T05:39:16.426Z,40.04
2023-03-25T05:41:45.701Z,39.91
2023-03-25T05:44:15.541Z,39.82
2023-03-25T05:46:44.219Z,39.87
2023-03-25T05:49:14.124Z,39.75
2023-03-25T05:51:45.176Z,39.60
2023-03-25T05:54:13.717Z,39.47
2023-03-25T05:56:42.863Z,39.52
2023-03-25T05:59:11.452Z,39.56
2023-03-25T06:01:42.002Z,39.47
2023-03-25T06:04:13.072Z,39.23
2023-03-25T06:06:42.945Z,39.19
2023-03-25T06:09:11.892Z,39.04
2023-03-25T06:11:40.330Z,38.96
2023-03-25T06:14:09.340Z,38.79
2023-03-25T06:16:37.862Z,38.85
2023-03-25T06:19:06.284Z,38.89
2023-03-25T06:21:35.592Z,38.90
2023-03-25T06:24:06.070Z,38.71
2023-03-25T06:26:34.539Z,38.85
2023-03-25T06:29:04.260Z,38.74
2023-03-25T06:31:34.498Z,38.52
2023-03-25T06:34:03.251Z,38.26
2023-03-25T06:36:31.839Z,38.35
2023-03-25T06:39:00.268Z,38.37
2023-03-25T06:41:30.010Z,38.26
2023-03-25T06:43:58.544Z,38.07
2023-03-25T06:46:27.024Z,38.06
2023-03-25T06:48:55.516Z,37.76
2023-03-25T06:51:24.055Z,37.44
2023-03-25T06:53:52.651Z,37.65
2023-03-25T06:56:21.043Z,37.45
2023-03-25T06:58:51.046Z,37.32
2023-03-25T07:01:19.638Z,37.24
2023-03-25T07:03:48.080Z,37.61
2023-03-25T07:06:19.331Z,37.40
2023-03-25T07:08:48.307Z,37.56
2023-03-25T07:11:20.529Z,37.50
2023-03-25T07:13:53.868Z,37.29
2023-03-25T07:16:22.614Z,37.21
2023-03-25T07:18:52.082Z,37.13
2023-03-25T07:21:20.876Z,37.27
2023-03-25T07:23:49.364Z,37.11
2023-03-25T07:26:18.403Z,36.70
2023-03-25T07:28:48.024Z,36.56
2023-03-25T07:31:18.530Z,35.75
2023-03-25T07:33:47.210Z,35.57
2023-03-25T07:36:15.760Z,35.56
2023-03-25T07:38:44.312Z,35.65
2023-03-25T07:41:15.528Z,35.54
2023-03-25T07:43:46.071Z,35.81
2023-03-25T07:46:14.629Z,35.38
2023-03-25T07:48:44.418Z,35.36
2023-03-25T07:51:12.955Z,35.56
2023-03-25T07:53:44.713Z,34.89
2023-03-25T07:56:14.249Z,35.08
2023-03-25T07:58:44.428Z,35.17
2023-03-25T08:01:13.298Z,35.01
2023-03-25T08:03:43.271Z,34.75
2023-03-25T08:06:11.835Z,34.05
2023-03-25T08:08:40.402Z,33.61
2023-03-25T08:11:09.342Z,33.55
2023-03-25T08:13:37.861Z,33.56
2023-03-25T08:16:13.123Z,33.32
2023-03-25T08:18:45.265Z,33.58
2023-03-25T08:21:14.352Z,33.74
2023-03-25T08:23:44.662Z,33.29
2023-03-25T08:26:13.110Z,33.10
2023-03-25T08:28:41.549Z,33.04
2023-03-25T08:31:10.275Z,32.96
2023-03-25T08:33:41.305Z,33.19
2023-03-25T08:36:19.756Z,32.71
2023-03-25T08:38:48.227Z,32.60
2023-03-25T08:41:16.933Z,32.62
2023-03-25T08:43:45.809Z,32.85
2023-03-25T08:46:14.418Z,32.73
2023-03-25T08:48:43.992Z,32.22
2023-03-25T08:51:13.828Z,31.74
2023-03-25T08:53:42.263Z,31.63
2023-03-25T08:56:12.291Z,31.67
2023-03-25T08:58:40.960Z,31.78
2023-03-25T09:01:09.532Z,32.13
2023-03-25T09:03:38.683Z,32.08
2023-03-25T09:06:08.576Z,32.51
2023-03-25T09:08:38.694Z,32.23
2023-03-25T09:11:08.056Z,32.03
2023-03-25T09:13:36.477Z,31.48
2023-03-25T09:16:05.084Z,31.42
2023-03-25T09:18:33.516Z,31.60
2023-03-25T09:21:02.285Z,31.51
2023-03-25T09:23:30.783Z,31.63
2023-03-25T09:26:05.329Z,31.64
2023-03-25T09:28:34.224Z,31.37
2023-03-25T09:31:02.714Z,31.54
2023-03-25T09:33:31.256Z,31.04
2023-03-25T09:36:00.194Z,30.67
2023-03-25T09:38:28.937Z,30.65
2023-03-25T09:40:57.698Z,30.67
2023-03-25T09:43:39.736Z,30.23
2023-03-25T09:46:09.345Z,29.52
2023-03-25T09:48:41.291Z,29.76
2023-03-25T09:51:16.998Z,30.38
2023-03-25T09:53:51.724Z,29.74
2023-03-25T09:56:24.241Z,29.24
2023-03-25T09:58:59.412Z,29.65
2023-03-25T10:01:41.650Z,29.11
2023-03-25T10:04:43.743Z,28.79
2023-03-25T10:07:31.155Z,28.90
2023-03-25T10:10:08.738Z,28.95
2023-03-25T10:12:47.713Z,29.01
2023-03-25T10:15:32.137Z,29.01
2023-03-25T10:18:36.416Z,29.24
2023-03-25T10:21:15.346Z,29.44
2023-03-25T10:23:49.710Z,29.59
2023-03-25T10:26:26.515Z,28.94
2023-03-25T10:29:02.504Z,28.58
2023-03-25T10:31:40.348Z,28.73
2023-03-25T10:34:15.724Z,27.67
2023-03-25T10:36:49.355Z,27.72
2023-03-25T10:39:21.595Z,28.03
2023-03-25T10:41:57.962Z,27.96
2023-03-25T10:44:29.014Z,27.65
2023-03-25T10:47:06.198Z,27.62
2023-03-25T10:49:37.134Z,27.81
2023-03-25T10:52:06.303Z,27.87
2023-03-25T10:54:40.756Z,27.89
2023-03-25T10:57:12.931Z,27.65
2023-03-25T10:59:47.360Z,27.71
2023-03-25T11:02:22.599Z,28.09
2023-03-25T11:04:57.048Z,27.47
2023-03-25T11:07:33.159Z,28.04
2023-03-25T11:10:19.769Z,27.94
2023-03-25T11:12:51.623Z,27.43
2023-03-25T11:15:23.823Z,26.96
2023-03-25T11:18:03.349Z,26.61
2023-03-25T11:20:41.962Z,27.10
2023-03-25T11:23:23.220Z,26.85
2023-03-25T11:25:52.282Z,25.76
2023-03-25T11:28:27.632Z,25.55
2023-03-25T11:31:17.656Z,25.93
2023-03-25T11:34:01.478Z,25.97
2023-03-25T11:36:32.157Z,25.33
2023-03-25T11:39:04.456Z,25.60
2023-03-25T11:41:36.745Z,25.54
2023-03-25T11:44:07.002Z,25.69
2023-03-25T11:46:42.583Z,25.25
2023-03-25T11:49:19.580Z,25.50
2023-03-25T11:51:48.191Z,24.78
2023-03-25T11:54:19.246Z,24.41
2023-03-25T11:56:51.114Z,24.93
2023-03-25T11:59:25.272Z,24.97
2023-03-25T12:02:02.936Z,23.14
2023-03-25T12:04:32.766Z,22.83
2023-03-25T12:07:03.565Z,23.51
2023-03-25T12:09:33.237Z,23.98
2023-03-25T12:12:42.016Z,23.75
2023-03-25T12:15:24.142Z,23.27
2023-03-25T12:18:07.655Z,23.66
2023-03-25T12:20:52.234Z,23.99
2023-03-25T12:23:32.752Z,23.71
2023-03-25T12:26:11.858Z,23.40
2023-03-25T12:29:14.272Z,24.19
2023-03-25T12:31:58.537Z,24.43
2023-03-25T12:34:40.799Z,24.52
2023-03-25T12:37:26.480Z,24.33
2023-03-25T12:40:29.837Z,24.74
2023-03-25T12:43:13.010Z,24.65
2023-03-25T12:46:04.000Z,23.55
2023-03-25T12:48:52.737Z,23.93
2023-03-25T12:51:35.921Z,24.29
2023-03-25T12:54:25.005Z,23.96
2023-03-25T12:57:08.412Z,23.38
2023-03-25T13:00:01.281Z,23.27
2023-03-25T13:02:58.575Z,23.00
2023-03-25T13:05:34.775Z,22.62
2023-03-25T13:08:07.924Z,22.11
2023-03-25T13:10:41.339Z,22.03
2023-03-25T13:13:16.235Z,22.06
2023-03-25T13:15:50.763Z,21.55
2023-03-25T13:18:26.202Z,20.78
2023-03-25T13:21:11.632Z,20.52
2023-03-25T13:23:44.627Z,21.08
2023-03-25T13:26:15.483Z,21.14
2023-03-25T13:28:48.036Z,21.08
2023-03-25T13:31:22.234Z,21.31
2023-03-25T13:33:58.285Z,21.18
2023-03-25T13:36:33.289Z,20.06
2023-03-25T13:39:12.144Z,18.57
2023-03-25T13:41:45.930Z,17.87
2023-03-25T13:44:21.630Z,17.60
2023-03-25T13:46:56.112Z,16.97
2023-03-25T13:49:31.483Z,18.16
2023-03-25T13:52:00.584Z,18.55
2023-03-25T13:54:36.501Z,19.19
2023-03-25T13:57:36.743Z,19.38
2023-03-25T14:00:39.618Z,19.57
2023-03-25T14:03:39.201Z,18.53
2023-03-25T14:06:45.753Z,17.18
2023-03-25T14:10:10.628Z,16.75
2023-03-25T14:12:42.721Z,15.13
2023-03-25T14:15:17.106Z,14.77
2023-03-25T14:17:47.268Z,15.27
2023-03-25T14:20:25.517Z,15.77
2023-03-25T14:22:59.501Z,15.84
2023-03-25T14:25:39.815Z,16.97
2023-03-25T14:28:10.396Z,16.63
2023-03-25T14:30:40.116Z,17.21
2023-03-25T14:33:13.022Z,17.41
2023-03-25T14:36:00.853Z,17.27
2023-03-25T14:38:54.911Z,17.58
2023-03-25T14:41:58.816Z,17.92
2023-03-25T14:44:32.912Z,18.17
2023-03-25T14:47:25.811Z,18.35
2023-03-25T14:50:01.467Z,18.37
2023-03-25T14:52:38.713Z,18.85
2023-03-25T14:55:15.334Z,19.07
2023-03-25T14:57:45.557Z,19.06
2023-03-25T15:00:28.983Z,19.54
2023-03-25T15:03:04.945Z,19.57
2023-03-25T15:05:35.121Z,20.07
2023-03-25T15:08:16.840Z,20.32
2023-03-25T15:10:49.812Z,20.39
2023-03-25T15:13:26.250Z,20.07
2023-03-25T15:16:03.018Z,20.16
2023-03-25T15:19:11.985Z,20.35
2023-03-25T15:22:18.990Z,20.44
2023-03-25T15:25:00.632Z,20.42
2023-03-25T15:27:56.842Z,20.72
2023-03-25T15:31:04.177Z,20.50
2023-03-25T15:33:57.082Z,20.61
2023-03-25T15:36:54.822Z,20.57
2023-03-25T15:39:55.802Z,20.54
2023-03-25T15:43:02.217Z,21.03
2023-03-25T15:45:57.181Z,20.98
2023-03-25T15:49:24.953Z,21.36
2023-03-25T15:52:13.113Z,21.40
2023-03-25T15:54:46.332Z,21.32
2023-03-25T15:57:26.161Z,21.38
2023-03-25T16:00:11.896Z,21.27
2023-03-25T16:02:46.974Z,21.43
2023-03-25T16:05:17.733Z,21.41
2023-03-25T16:07:47.178Z,21.61
2023-03-25T16:10:19.272Z,21.26
2023-03-25T16:12:51.034Z,21.73
2023-03-25T16:15:26.972Z,21.85
2023-03-25T16:17:56.470Z,21.67
2023-03-25T16:20:32.157Z,22.07
2023-03-25T16:23:03.646Z,22.09
2023-03-25T16:25:37.834Z,22.28
2023-03-25T16:28:09.845Z,22.71
2023-03-25T16:30:43.156Z,22.67
2023-03-25T16:33:19.211Z,23.11
2023-03-25T16:35:59.269Z,23.18
2023-03-25T16:38:28.698Z,23.60
2023-03-25T16:41:03.056Z,24.07
2023-03-25T16:43:32.379Z,24.45
2023-03-25T16:46:05.659Z,24.87
2023-03-25T16:48:36.963Z,26.53
2023-03-25T16:51:12.796Z,29.23
2023-03-25T16:53:42.322Z,29.82
2023-03-25T16:56:28.995Z,29.74
2023-03-25T16:59:04.083Z,29.62
2023-03-25T17:01:42.743Z,29.55
2023-03-25T17:04:18.881Z,29.23
2023-03-25T17:06:53.160Z,29.29
2023-03-25T17:09:25.240Z,32.45
2023-03-25T17:11:58.463Z,36.68
2023-03-25T17:14:33.743Z,38.49
2023-03-25T17:17:12.914Z,39.51
2023-03-25T17:19:47.950Z,40.58
2023-03-25T17:22:25.863Z,41.64
2023-03-25T17:24:58.084Z,42.29
2023-03-25T17:27:34.248Z,43.92
2023-03-25T17:30:20.389Z,43.98
2023-03-25T17:32:53.518Z,44.08
2023-03-25T17:35:28.424Z,44.60
2023-03-25T17:37:59.008Z,46.08
2023-03-25T17:40:29.683Z,46.21
2023-03-25T17:43:00.473Z,46.53
2023-03-25T17:45:30.669Z,46.40
2023-03-25T17:48:01.527Z,46.76
2023-03-25T17:50:33.232Z,46.59
2023-03-25T17:53:02.419Z,46.86
2023-03-25T17:55:31.046Z,46.89
2023-03-25T17:58:00.148Z,46.69
2023-03-25T18:00:29.419Z,46.64
2023-03-25T18:02:59.731Z,46.66
2023-03-25T18:05:28.692Z,46.48
2023-03-25T18:07:58.790Z,46.63
2023-03-25T18:10:30.705Z,46.48
2023-03-25T18:12:59.967Z,46.50
2023-03-25T18:15:29.201Z,46.56
2023-03-25T18:18:01.104Z,46.36
2023-03-25T18:20:34.110Z,46.26
2023-03-25T18:23:04.458Z,46.20
2023-03-25T18:25:37.109Z,46.14
2023-03-25T18:28:06.850Z,45.98
2023-03-25T18:30:45.014Z,46.00
2023-03-25T18:33:16.953Z,45.67
2023-03-25T18:35:48.070Z,45.63
2023-03-25T18:38:22.365Z,45.48
2023-03-25T18:40:53.970Z,45.31
2023-03-25T18:43:26.639Z,45.21
2023-03-25T18:45:56.577Z,45.18
2023-03-25T18:48:28.686Z,45.02
2023-03-25T18:51:01.645Z,45.10
2023-03-25T18:53:33.188Z,44.83
2023-03-25T18:56:04.511Z,44.70
2023-03-25T18:58:36.045Z,44.72
2023-03-25T19:01:09.790Z,44.40
2023-03-25T19:03:41.107Z,44.17
2023-03-25T19:06:14.721Z,44.12
2023-03-25T19:08:46.687Z,43.95
2023-03-25T19:11:21.748Z,43.84
2023-03-25T19:13:53.596Z,43.65
2023-03-25T19:16:24.546Z,43.43
2023-03-25T19:18:57.262Z,43.09
2023-03-25T19:21:26.812Z,42.94
2023-03-25T19:23:56.820Z,42.62
2023-03-25T19:26:27.696Z,42.52
2023-03-25T19:28:57.037Z,42.28
2023-03-25T19:31:27.071Z,42.31
2023-03-25T19:33:58.687Z,42.31
2023-03-25T19:36:28.812Z,42.18
2023-03-25T19:39:06.051Z,42.17
2023-03-25T19:41:42.675Z,42.09
2023-03-25T19:44:12.868Z,41.78
2023-03-25T19:46:56.147Z,41.75
2023-03-25T19:49:39.272Z,41.75
2023-03-25T19:52:10.481Z,41.59
2023-03-25T19:54:41.735Z,41.44
2023-03-25T19:57:12.523Z,41.31
2023-03-25T19:59:44.962Z,40.93
2023-03-25T20:02:16.088Z,40.95
2023-03-25T20:04:47.553Z,40.80
2023-03-25T20:07:19.305Z,40.88
2023-03-25T20:09:49.732Z,40.31
2023-03-25T20:12:22.442Z,39.76
2023-03-25T20:14:53.574Z,39.07
2023-03-25T20:17:25.397Z,38.57
2023-03-25T20:19:58.683Z,38.19
2023-03-25T20:22:29.055Z,38.32
2023-03-25T20:25:00.724Z,38.44
2023-03-25T20:27:32.274Z,38.50
2023-03-25T20:30:02.837Z,38.89
2023-03-25T20:32:40.754Z,39.12
2023-03-25T20:35:16.400Z,39.32
2023-03-25T20:37:49.155Z,39.25
2023-03-25T20:40:33.785Z,39.41
2023-03-25T20:43:14.957Z,39.39
2023-03-25T20:45:47.016Z,39.49
2023-03-25T20:48:17.102Z,39.64
2023-03-25T20:50:48.588Z,39.88
2023-03-25T20:53:17.940Z,40.00
2023-03-25T20:55:48.500Z,39.95
2023-03-25T20:58:18.250Z,40.04
2023-03-25T21:00:47.594Z,40.01
2023-03-25T21:03:18.615Z,39.95
2023-03-25T21:05:50.098Z,40.22
2023-03-25T21:08:20.205Z,40.37
2023-03-25T21:10:50.289Z,40.37
2023-03-25T21:13:19.926Z,40.76
2023-03-25T21:15:49.748Z,41.04
2023-03-25T21:18:19.018Z,40.70
2023-03-25T21:20:52.852Z,40.60
2023-03-25T21:23:27.922Z,40.46
2023-03-25T21:26:00.351Z,40.61
2023-03-25T21:28:30.444Z,40.52
2023-03-25T21:31:04.757Z,40.32
2023-03-25T21:33:34.528Z,40.34
2023-03-25T21:36:06.608Z,40.32
2023-03-25T21:38:36.389Z,40.49
2023-03-25T21:41:07.687Z,40.38
2023-03-25T21:43:39.865Z,40.33
2023-03-25T21:46:09.055Z,40.29
2023-03-25T21:48:39.544Z,40.46
2023-03-25T21:51:14.374Z,40.35
2023-03-25T21:53:45.464Z,40.23
2023-03-25T21:56:17.989Z,40.44
2023-03-25T21:58:48.242Z,40.58
2023-03-25T22:01:23.095Z,40.72
2023-03-25T22:03:55.366Z,40.97
2023-03-25T22:06:28.090Z,41.05
2023-03-25T22:08:57.213Z,41.27
2023-03-25T22:11:29.673Z,41.27
2023-03-25T22:13:59.006Z,41.17
2023-03-25T22:16:27.929Z,41.16
2023-03-25T22:18:56.416Z,41.33
2023-03-25T22:21:30.195Z,41.30
2023-03-25T22:24:01.423Z,41.04
2023-03-25T22:26:32.439Z,41.40
2023-03-25T22:29:03.686Z,41.15
2023-03-25T22:31:39.635Z,41.12
2023-03-25T22:34:15.264Z,40.92
2023-03-25T22:36:50.476Z,40.75
2023-03-25T22:39:20.485Z,40.67
2023-03-25T22:41:49.193Z,40.54
2023-03-25T22:44:18.280Z,40.65
2023-03-25T22:46:47.017Z,40.67
2023-03-25T22:49:16.104Z,40.68
2023-03-25T22:51:46.082Z,40.52
2023-03-25T22:54:14.644Z,40.55
2023-03-25T22:56:43.782Z,40.33
2023-03-25T22:59:14.179Z,40.48
2023-03-25T23:01:43.761Z,40.23
2023-03-25T23:04:12.710Z,40.18
2023-03-25T23:06:41.910Z,39.95
2023-03-25T23:09:12.315Z,39.96
2023-03-25T23:11:40.825Z,39.83
2023-03-25T23:14:13.334Z,39.80
2023-03-25T23:16:42.403Z,39.69
2023-03-25T23:19:11.034Z,39.58
2023-03-25T23:21:40.604Z,39.61
2023-03-25T23:24:11.841Z,39.57
2023-03-25T23:26:42.126Z,39.54
2023-03-25T23:29:13.313Z,39.63
2023-03-25T23:31:44.311Z,39.59
2023-03-25T23:34:15.084Z,39.61
2023-03-25T23:36:45.394Z,39.53
2023-03-25T23:39:20.061Z,39.49
2023-03-25T23:41:48.571Z,39.53
2023-03-25T23:44:17.136Z,39.42
2023-03-25T23:46:46.453Z,39.54
2023-03-25T23:49:17.924Z,39.53
2023-03-25T23:51:47.110Z,39.39
2023-03-25T23:54:18.056Z,39.38
2023-03-25T23:56:46.481Z,39.40
2023-03-25T23:59:14.893Z,39.25
